Time;durP1;ratioP1;P1;durP2;ratioP2;P2;SDS_P1;SDS_P2;PMS_P1;PMS_P2;Temp;Humidity;BMP_temperature;BMP_pressure;BME280_temperature;BME280_humidity;BME280_pressure;Samples;Min_cycle;Max_cycle;Signal;HPM_P1;HPM_P2
2022/08/29 00:00:32;;;;;;;1.85;1.48;;;15.60;71.80;;;;;;5034888;28;20034;-68
2022/08/29 00:02:59;;;;;;;1.10;0.70;;;15.60;71.80;;;;;;5030656;28;20396;-68
2022/08/29 00:05:30;;;;;;;1.25;0.70;;;15.60;71.70;;;;;;5029689;28;20030;-69
2022/08/29 00:07:58;;;;;;;1.92;0.73;;;15.60;71.60;;;;;;5032523;28;20623;-69
2022/08/29 00:10:25;;;;;;;4.35;0.95;;;15.60;71.60;;;;;;5038567;28;20025;-69
2022/08/29 00:12:52;;;;;;;2.38;1.00;;;15.60;71.60;;;;;;5035550;28;20030;-69
2022/08/29 00:15:20;;;;;;;0.75;0.65;;;15.60;71.50;;;;;;5031235;28;20021;-69
2022/08/29 00:17:47;;;;;;;1.38;0.80;;;15.60;71.40;;;;;;5031395;28;20045;-68
2022/08/29 00:20:19;;;;;;;2.00;0.50;;;15.60;71.60;;;;;;5033029;28;20029;-68
2022/08/29 00:22:46;;;;;;;3.20;0.98;;;15.50;71.50;;;;;;5038954;28;20452;-69
2022/08/29 00:25:14;;;;;;;2.65;0.57;;;15.60;71.50;;;;;;5028500;28;20060;-69
2022/08/29 00:27:41;;;;;;;2.50;1.75;;;15.50;71.40;;;;;;5028173;28;20022;-69
2022/08/29 00:30:08;;;;;;;0.98;0.47;;;15.50;71.40;;;;;;5035464;28;20060;-69
2022/08/29 00:32:35;;;;;;;0.93;0.75;;;15.50;71.30;;;;;;5034682;28;20061;-69
2022/08/29 00:35:05;;;;;;;0.63;0.63;;;15.50;71.40;;;;;;5028580;28;20078;-69
2022/08/29 00:37:32;;;;;;;2.45;0.63;;;15.40;71.30;;;;;;5033018;28;20037;-69
2022/08/29 00:39:58;;;;;;;1.42;0.60;;;15.50;71.30;;;;;;5037374;28;20045;-69
2022/08/29 00:42:25;;;;;;;0.75;0.30;;;15.40;71.20;;;;;;5037153;28;20025;-69
2022/08/29 00:44:51;;;;;;;0.40;0.40;;;15.40;71.20;;;;;;5028452;28;20038;-69
2022/08/29 00:47:28;;;;;;;2.17;0.60;;;15.40;71.20;;;;;;5033705;28;20028;-69
2022/08/29 00:49:56;;;;;;;0.88;0.50;;;15.40;71.20;;;;;;5035330;28;20033;-69
2022/08/29 00:52:36;;;;;;;0.43;0.20;;;15.40;71.10;;;;;;5037293;28;20023;-69
2022/08/29 00:55:10;;;;;;;1.23;0.30;;;15.40;71.20;;;;;;5033690;28;20436;-69
2022/08/29 00:57:41;;;;;;;0.67;0.20;;;15.30;71.10;;;;;;5029680;28;20120;-69
2022/08/29 01:00:09;;;;;;;0.85;0.38;;;15.40;71.00;;;;;;5039119;28;20025;-69
2022/08/29 01:02:39;;;;;;;0.60;0.52;;;15.30;71.00;;;;;;5034414;28;20422;-69
2022/08/29 01:05:10;;;;;;;5.93;0.60;;;15.30;70.90;;;;;;5037527;28;20406;-69
2022/08/29 01:07:38;;;;;;;2.58;0.85;;;15.30;70.90;;;;;;5030198;28;20484;-69
2022/08/29 01:10:06;;;;;;;1.73;0.88;;;15.30;70.90;;;;;;5035989;28;20033;-69
2022/08/29 01:12:34;;;;;;;2.60;0.65;;;15.30;70.80;;;;;;5030942;28;20033;-69
2022/08/29 01:15:07;;;;;;;0.60;0.35;;;15.20;70.70;;;;;;5031414;28;20033;-69
2022/08/29 01:17:43;;;;;;;3.63;0.35;;;15.20;70.70;;;;;;5028187;28;20048;-69
2022/08/29 01:20:40;;;;;;;1.75;0.45;;;15.30;70.90;;;;;;5032682;28;20495;-69
2022/08/29 01:23:18;;;;;;;1.63;0.40;;;15.20;71.00;;;;;;5037061;28;20045;-69
2022/08/29 01:25:48;;;;;;;0.93;0.30;;;15.20;71.00;;;;;;5030200;28;20034;-69
2022/08/29 01:28:22;;;;;;;1.45;0.57;;;15.20;70.90;;;;;;5033620;28;20043;-69
2022/08/29 01:31:06;;;;;;;1.10;0.32;;;15.20;70.90;;;;;;5033351;28;20057;-69
2022/08/29 01:33:44;;;;;;;3.08;0.90;;;15.20;70.90;;;;;;5027646;28;20032;-69
2022/08/29 01:36:15;;;;;;;1.67;0.80;;;15.20;70.90;;;;;;5038253;28;20076;-68
2022/08/29 01:38:42;;;;;;;1.60;1.50;;;15.10;70.70;;;;;;5031910;28;20477;-69
2022/08/29 01:41:09;;;;;;;2.83;0.95;;;15.10;70.70;;;;;;5031608;28;20068;-69
2022/08/29 01:43:43;;;;;;;4.00;1.05;;;15.10;70.70;;;;;;5029150;28;20051;-69
2022/08/29 01:46:11;;;;;;;1.35;1.23;;;15.10;70.80;;;;;;5037477;28;20490;-69
2022/08/29 01:48:40;;;;;;;1.48;0.70;;;15.10;70.80;;;;;;5029666;28;20025;-70
2022/08/29 01:51:08;;;;;;;2.10;0.85;;;15.10;70.80;;;;;;5031801;28;20087;-69
2022/08/29 01:53:35;;;;;;;1.13;0.45;;;15.10;71.00;;;;;;5034202;28;20043;-69
2022/08/29 01:56:17;;;;;;;1.80;0.60;;;15.10;71.00;;;;;;5038163;28;20487;-69
2022/08/29 01:58:45;;;;;;;6.10;0.70;;;15.10;71.00;;;;;;5030912;28;20147;-69
2022/08/29 02:01:15;;;;;;;9.15;0.80;;;15.00;71.20;;;;;;5035429;28;20108;-69
2022/08/29 02:03:42;;;;;;;6.35;1.75;;;15.00;71.60;;;;;;5026565;28;20079;-69
2022/08/29 02:06:09;;;;;;;0.55;0.38;;;15.00;72.10;;;;;;5029843;28;20032;-69
2022/08/29 02:08:40;;;;;;;6.60;0.93;;;15.00;71.90;;;;;;5031004;28;20101;-69
2022/08/29 02:11:09;;;;;;;7.03;0.60;;;15.00;71.90;;;;;;5033371;28;20361;-68
2022/08/29 02:13:45;;;;;;;2.33;0.82;;;14.90;72.20;;;;;;5034927;28;20034;-69
2022/08/29 02:16:12;;;;;;;1.17;0.30;;;14.90;72.00;;;;;;5040791;28;20120;-69
2022/08/29 02:18:41;;;;;;;0.65;0.52;;;14.90;71.70;;;;;;5033392;28;20065;-70
2022/08/29 02:21:09;;;;;;;3.25;0.60;;;14.90;72.10;;;;;;5037138;28;20091;-69
2022/08/29 02:23:37;;;;;;;2.03;0.60;;;14.90;72.20;;;;;;5036221;28;20029;-69
2022/08/29 02:26:04;;;;;;;1.05;0.40;;;14.90;72.40;;;;;;5031468;28;20025;-69
2022/08/29 02:28:32;;;;;;;1.30;0.65;;;14.90;72.50;;;;;;5031902;28;20532;-69
2022/08/29 02:30:59;;;;;;;1.10;0.50;;;14.90;72.40;;;;;;5030862;28;20064;-69
2022/08/29 02:33:26;;;;;;;0.77;0.40;;;14.80;72.10;;;;;;5032061;28;20400;-69
2022/08/29 02:35:53;;;;;;;0.40;0.40;;;14.80;71.90;;;;;;5032713;28;20408;-69
2022/08/29 02:38:20;;;;;;;2.97;1.70;;;14.80;71.90;;;;;;5031037;28;20389;-69
2022/08/29 02:40:48;;;;;;;4.95;1.00;;;14.80;72.00;;;;;;5029703;28;20063;-68
2022/08/29 02:43:16;;;;;;;1.08;0.50;;;14.80;72.60;;;;;;5035740;28;20107;-68
2022/08/29 02:45:44;;;;;;;0.95;0.55;;;14.90;73.00;;;;;;5032078;28;20036;-69
2022/08/29 02:48:11;;;;;;;1.95;0.50;;;14.80;73.00;;;;;;5033454;28;20037;-68
2022/08/29 02:50:44;;;;;;;1.90;1.13;;;14.90;73.10;;;;;;5033839;28;20124;-69
2022/08/29 02:53:12;;;;;;;1.95;0.20;;;14.80;73.10;;;;;;5030908;28;20048;-68
2022/08/29 02:55:39;;;;;;;3.10;0.88;;;14.90;73.20;;;;;;5031721;28;20029;-68
2022/08/29 02:58:06;;;;;;;0.32;0.30;;;14.90;73.30;;;;;;5030398;28;20025;-68
2022/08/29 03:00:34;;;;;;;2.75;0.52;;;14.90;73.40;;;;;;5033110;28;20113;-68
2022/08/29 03:03:01;;;;;;;1.25;0.47;;;14.90;73.90;;;;;;5026346;28;20469;-68
2022/08/29 03:05:33;;;;;;;0.30;0.20;;;14.90;73.90;;;;;;5033538;28;20037;-69
2022/08/29 03:08:02;;;;;;;1.10;0.30;;;14.90;73.80;;;;;;5034883;28;20038;-68
2022/08/29 03:10:29;;;;;;;0.73;0.30;;;14.90;73.80;;;;;;5027498;28;20499;-68
2022/08/29 03:12:55;;;;;;;2.95;0.30;;;14.90;73.60;;;;;;5034149;28;20028;-69
2022/08/29 03:15:23;;;;;;;4.13;0.47;;;14.90;73.40;;;;;;5026881;28;20043;-69
2022/08/29 03:17:49;;;;;;;4.15;1.02;;;14.90;73.20;;;;;;5032203;28;20033;-69
2022/08/29 03:20:18;;;;;;;4.30;1.20;;;14.80;73.20;;;;;;5033837;28;20034;-68
2022/08/29 03:22:45;;;;;;;3.13;1.70;;;14.80;73.30;;;;;;5034398;28;20033;-69
2022/08/29 03:25:13;;;;;;;3.38;1.40;;;14.80;73.10;;;;;;5034915;28;20026;-68
2022/08/29 03:27:40;;;;;;;7.82;1.92;;;14.80;73.20;;;;;;5029667;28;20052;-68
2022/08/29 03:30:08;;;;;;;2.42;2.17;;;14.80;73.80;;;;;;5031703;28;20025;-68
2022/08/29 03:32:35;;;;;;;14.85;3.42;;;14.80;74.10;;;;;;5029208;28;20083;-68
2022/08/29 03:35:02;;;;;;;3.53;2.00;;;14.70;74.30;;;;;;5028817;28;20501;-68
2022/08/29 03:37:28;;;;;;;10.07;1.85;;;14.70;74.20;;;;;;5031019;28;20048;-68
2022/08/29 03:39:55;;;;;;;3.17;1.25;;;14.60;73.90;;;;;;5032863;28;20072;-68
2022/08/29 03:42:21;;;;;;;2.72;1.40;;;14.70;73.30;;;;;;5034701;28;20030;-68
2022/08/29 03:44:48;;;;;;;4.43;1.60;;;14.60;72.60;;;;;;5036859;28;20488;-70
2022/08/29 03:47:15;;;;;;;2.20;1.55;;;14.60;72.10;;;;;;5031079;28;20913;-69
2022/08/29 03:49:41;;;;;;;2.03;1.60;;;14.50;71.70;;;;;;5032978;28;20075;-68
2022/08/29 03:52:08;;;;;;;2.80;1.58;;;14.50;71.60;;;;;;5034239;28;20369;-68
2022/08/29 03:54:35;;;;;;;6.00;1.85;;;14.50;71.60;;;;;;5034079;28;20029;-69
2022/08/29 03:57:04;;;;;;;3.63;2.33;;;14.50;71.70;;;;;;5031069;28;20087;-69
2022/08/29 03:59:32;;;;;;;2.33;1.92;;;14.50;71.70;;;;;;5026135;28;20029;-69
2022/08/29 04:01:58;;;;;;;1.48;1.38;;;14.50;71.70;;;;;;5029169;28;20034;-69
2022/08/29 04:07:13;;;;;;;8.57;1.88;;;14.40;71.60;;;;;;5040516;28;20032;-67
2022/08/29 04:09:40;;;;;;;5.90;3.60;;;14.40;71.40;;;;;;5030883;28;20116;-67
2022/08/29 04:12:11;;;;;;;15.90;11.82;;;14.40;72.70;;;;;;5031689;28;20032;-68
2022/08/29 04:14:39;;;;;;;7.00;4.88;;;14.40;73.50;;;;;;5030276;28;20044;-70
2022/08/29 04:17:09;;;;;;;4.63;2.67;;;14.40;70.50;;;;;;5040389;28;20033;-72
2022/08/29 04:19:35;;;;;;;5.97;2.88;;;14.20;71.70;;;;;;5040494;28;20028;-73
2022/08/29 04:22:04;;;;;;;3.00;2.63;;;14.10;73.10;;;;;;5038295;28;20030;-71
2022/08/29 04:24:32;;;;;;;4.30;2.17;;;14.10;73.50;;;;;;5038171;28;20434;-71
2022/08/29 04:26:59;;;;;;;5.53;2.00;;;14.10;73.30;;;;;;5032219;28;20454;-70
2022/08/29 04:29:26;;;;;;;4.53;2.10;;;14.20;73.30;;;;;;5026243;28;20563;-71
2022/08/29 04:31:53;;;;;;;5.75;2.30;;;14.20;73.20;;;;;;5034965;28;20033;-71
2022/08/29 04:34:20;;;;;;;5.32;2.50;;;14.20;73.10;;;;;;5033511;28;20032;-71
2022/08/29 04:36:47;;;;;;;2.88;1.98;;;14.20;73.00;;;;;;5029124;28;20129;-71
2022/08/29 04:39:14;;;;;;;2.75;2.38;;;14.20;72.70;;;;;;5039341;28;20057;-72
2022/08/29 04:41:42;;;;;;;3.15;1.70;;;14.20;72.60;;;;;;5037625;28;20021;-71
2022/08/29 04:44:10;;;;;;;7.10;4.25;;;14.20;72.50;;;;;;5037205;28;20027;-71
2022/08/29 04:46:38;;;;;;;10.70;5.35;;;14.20;73.00;;;;;;5028631;28;20025;-71
2022/08/29 04:49:05;;;;;;;19.52;13.15;;;14.20;72.20;;;;;;5037983;28;20053;-71
2022/08/29 04:51:33;;;;;;;11.32;7.70;;;14.20;72.40;;;;;;5031810;28;20025;-71
2022/08/29 04:54:00;;;;;;;4.40;4.00;;;14.20;72.60;;;;;;5034127;28;20025;-70
2022/08/29 04:57:06;;;;;;;6.45;3.20;;;14.20;72.90;;;;;;5038332;28;20064;-70
2022/08/29 05:00:12;;;;;;;10.65;2.22;;;14.20;72.70;;;;;;5032370;28;20105;-70
2022/08/29 05:03:18;;;;;;;3.85;1.85;;;14.20;73.10;;;;;;5034815;28;20403;-70
2022/08/29 05:06:25;;;;;;;2.42;1.83;;;14.20;73.50;;;;;;5029870;28;20049;-70
2022/08/29 05:09:31;;;;;;;2.50;2.20;;;14.20;73.60;;;;;;5031217;28;20042;-70
2022/08/29 05:12:37;;;;;;;4.40;2.20;;;14.20;73.40;;;;;;5036945;28;20041;-70
2022/08/29 05:15:44;;;;;;;3.88;1.85;;;14.20;73.10;;;;;;5032855;28;20018;-70
2022/08/29 05:18:32;;;;;;;;;;;14.20;73.70;;;;;;5036793;28;20057;-70
2022/08/29 05:21:45;;;;;;;4.65;2.50;;;14.10;72.90;;;;;;5032343;28;19967;-70
2022/08/29 05:24:52;;;;;;;4.28;2.63;;;14.20;73.00;;;;;;5032230;28;20320;-70
2022/08/29 05:27:58;;;;;;;5.25;2.83;;;14.10;73.00;;;;;;5036109;28;20037;-71
2022/08/29 05:31:04;;;;;;;5.50;2.78;;;14.10;73.20;;;;;;5036129;28;20029;-70
2022/08/29 05:34:11;;;;;;;3.58;2.67;;;14.10;73.30;;;;;;5028682;28;20544;-70
2022/08/29 05:37:18;;;;;;;2.47;1.98;;;14.10;73.50;;;;;;5033350;28;20049;-70
2022/08/29 05:40:24;;;;;;;4.50;2.05;;;14.10;73.50;;;;;;5032480;28;20037;-70
2022/08/29 05:43:30;;;;;;;6.05;2.20;;;14.10;74.30;;;;;;5030938;28;20341;-70
2022/08/29 05:46:39;;;;;;;4.50;1.35;;;14.10;73.60;;;;;;5034702;28;20028;-70
2022/08/29 05:49:45;;;;;;;3.67;1.25;;;14.10;73.70;;;;;;5039303;28;20038;-70
2022/08/29 05:52:51;;;;;;;2.03;1.90;;;14.10;73.70;;;;;;5030698;28;20029;-71
2022/08/29 05:55:57;;;;;;;5.85;1.25;;;14.10;73.80;;;;;;5031602;28;20142;-70
2022/08/29 05:59:03;;;;;;;3.78;1.50;;;14.00;73.90;;;;;;5031493;28;20037;-70
2022/08/29 06:02:09;;;;;;;2.28;1.60;;;14.10;74.40;;;;;;5025864;28;20026;-71
2022/08/29 06:05:15;;;;;;;8.40;2.42;;;14.00;74.70;;;;;;5026976;28;20026;-70
2022/08/29 06:08:22;;;;;;;10.35;3.55;;;14.00;75.10;;;;;;5027853;28;20025;-70
2022/08/29 06:11:28;;;;;;;3.85;2.15;;;14.10;75.50;;;;;;5031518;28;20088;-70
2022/08/29 06:14:34;;;;;;;5.28;1.90;;;14.10;75.70;;;;;;5030368;28;20099;-70
2022/08/29 06:17:40;;;;;;;2.92;2.25;;;14.10;75.90;;;;;;5030683;28;20124;-71
2022/08/29 06:20:46;;;;;;;5.55;2.92;;;14.10;76.10;;;;;;5034753;28;20033;-71
2022/08/29 06:23:52;;;;;;;4.85;3.60;;;14.20;76.70;;;;;;5034162;28;20431;-70
2022/08/29 06:26:58;;;;;;;9.95;4.05;;;14.20;77.20;;;;;;5027617;28;20021;-70
2022/08/29 06:30:05;;;;;;;5.22;4.10;;;14.30;78.80;;;;;;5035479;28;20025;-69
2022/08/29 06:33:12;;;;;;;14.68;3.78;;;14.40;79.40;;;;;;5030141;28;20049;-70
2022/08/29 06:35:58;;;;;;;;;;;14.40;80.60;;;;;;5032150;28;20065;-69
2022/08/29 06:39:05;;;;;;;12.43;3.83;;;14.40;81.20;;;;;;5032416;28;19917;-71
2022/08/29 06:42:11;;;;;;;9.32;4.07;;;14.40;81.30;;;;;;5029672;28;20392;-71
2022/08/29 06:45:17;;;;;;;5.43;3.78;;;14.50;81.90;;;;;;5026525;28;20459;-71
2022/08/29 06:48:24;;;;;;;8.15;4.82;;;14.50;82.40;;;;;;5029391;28;20036;-70
2022/08/29 06:51:31;;;;;;;10.95;5.75;;;14.50;82.60;;;;;;5031379;28;20037;-70
2022/08/29 06:54:40;;;;;;;5.93;3.92;;;14.50;83.00;;;;;;5029304;28;20037;-70
2022/08/29 06:57:46;;;;;;;8.60;4.57;;;14.50;83.40;;;;;;5029587;28;20041;-70
2022/08/29 07:00:52;;;;;;;8.23;4.20;;;14.50;83.70;;;;;;5031144;28;20465;-70
2022/08/29 07:03:59;;;;;;;7.78;5.45;;;14.50;83.90;;;;;;5033917;28;20029;-71
2022/08/29 07:07:05;;;;;;;6.93;4.20;;;14.50;84.90;;;;;;5025535;28;20025;-71
2022/08/29 07:10:13;;;;;;;8.15;4.68;;;14.50;84.70;;;;;;5032094;28;20037;-70
2022/08/29 07:13:19;;;;;;;6.07;4.10;;;14.50;85.10;;;;;;5032604;28;20026;-71
2022/08/29 07:16:27;;;;;;;10.27;5.38;;;14.60;85.50;;;;;;5026653;28;20088;-70
2022/08/29 07:19:33;;;;;;;6.60;4.13;;;14.60;85.80;;;;;;5029576;28;20025;-70
2022/08/29 07:22:40;;;;;;;10.95;5.47;;;14.70;86.10;;;;;;5034787;28;20428;-69
2022/08/29 07:25:46;;;;;;;6.22;5.30;;;14.70;86.30;;;;;;5034027;28;20119;-70
2022/08/29 07:28:52;;;;;;;7.82;6.07;;;14.80;86.60;;;;;;5030435;28;20250;-70
2022/08/29 07:31:58;;;;;;;8.50;5.10;;;14.90;86.70;;;;;;5030394;28;20362;-69
2022/08/29 07:35:04;;;;;;;6.90;5.63;;;14.90;87.00;;;;;;5033819;28;20552;-70
2022/08/29 07:38:10;;;;;;;7.82;4.78;;;14.90;87.20;;;;;;5032890;28;20049;-70
2022/08/29 07:41:19;;;;;;;7.97;4.75;;;15.00;87.50;;;;;;5037334;28;20037;-70
2022/08/29 07:44:25;;;;;;;10.88;4.15;;;15.00;87.80;;;;;;5032532;28;20030;-70
2022/08/29 07:47:34;;;;;;;9.48;4.43;;;15.00;88.00;;;;;;5026378;28;20124;-70
2022/08/29 07:50:47;;;;;;;6.90;4.18;;;15.10;88.50;;;;;;5035963;28;20034;-70
2022/08/29 07:53:53;;;;;;;4.72;3.38;;;15.10;89.00;;;;;;5032641;28;20044;-70
2022/08/29 07:56:59;;;;;;;9.02;5.10;;;15.20;89.80;;;;;;5030714;28;20037;-70
2022/08/29 08:00:07;;;;;;;9.32;3.70;;;15.20;90.20;;;;;;5039103;28;20464;-70
2022/08/29 08:03:14;;;;;;;11.15;3.60;;;15.30;90.20;;;;;;5030687;28;20440;-71
2022/08/29 08:06:20;;;;;;;8.15;3.67;;;15.30;90.10;;;;;;5031483;28;20388;-71
2022/08/29 08:09:26;;;;;;;5.80;1.88;;;15.40;90.10;;;;;;5035892;28;20152;-70
2022/08/29 08:12:32;;;;;;;4.93;2.22;;;15.40;90.00;;;;;;5033059;28;20037;-70
2022/08/29 08:15:39;;;;;;;9.32;1.60;;;15.40;90.00;;;;;;5032885;28;20473;-70
2022/08/29 08:18:45;;;;;;;5.72;2.17;;;15.40;89.80;;;;;;5034580;28;20042;-70
2022/08/29 08:21:51;;;;;;;6.85;1.38;;;15.40;89.50;;;;;;5038347;28;20419;-70
2022/08/29 08:24:57;;;;;;;5.78;2.85;;;15.50;89.40;;;;;;5030718;28;20033;-70
2022/08/29 08:28:03;;;;;;;9.18;2.40;;;15.50;89.20;;;;;;5035588;28;20045;-71
2022/08/29 08:30:29;;;;;;;12.60;2.88;;;15.50;88.90;;;;;;5023704;28;20034;-71
2022/08/29 08:32:56;;;;;;;9.55;1.58;;;15.60;88.90;;;;;;5033712;28;20018;-70
2022/08/29 08:35:23;;;;;;;12.50;2.15;;;15.60;88.60;;;;;;5032716;28;20721;-71
2022/08/29 08:38:30;;;;;;;13.35;1.67;;;15.70;88.90;;;;;;5025597;28;20500;-71
2022/08/29 08:41:28;;;;;;;;;;;15.70;87.70;;;;;;5036204;28;20069;-71
2022/08/29 08:44:35;;;;;;;5.55;1.73;;;15.70;87.10;;;;;;5042055;28;19912;-71
2022/08/29 08:47:44;;;;;;;7.15;1.52;;;15.70;86.70;;;;;;5029025;28;20116;-71
2022/08/29 08:50:33;;;;;;;4.40;1.00;;;15.70;86.10;;;;;;5027919;28;20117;-71
2022/08/29 08:53:55;;;;;;;6.93;1.52;;;15.80;85.50;;;;;;5026572;28;20431;-71
2022/08/29 08:57:10;;;;;;;10.88;2.33;;;15.80;85.80;;;;;;5033427;28;20041;-72
2022/08/29 09:00:16;;;;;;;8.45;1.40;;;15.90;84.70;;;;;;5026540;28;20520;-71
2022/08/29 09:03:02;;;;;;;6.55;1.08;;;16.00;84.20;;;;;;5031817;28;20045;-71
2022/08/29 09:05:51;;;;;;;;;;;16.10;83.60;;;;;;5027107;28;20037;-71
2022/08/29 09:08:43;;;;;;;5.03;1.10;;;16.10;82.90;;;;;;5031579;28;19927;-70
2022/08/29 09:11:13;;;;;;;5.05;1.33;;;16.10;82.20;;;;;;5038131;28;20373;-70
2022/08/29 09:13:48;;;;;;;4.30;1.77;;;16.20;82.00;;;;;;5033139;28;20026;-70
2022/08/29 09:17:00;;;;;;;6.78;2.15;;;16.20;81.50;;;;;;5035937;28;20040;-70
2022/08/29 09:20:07;;;;;;;5.05;1.25;;;16.30;81.20;;;;;;5038814;28;20025;-70
2022/08/29 09:22:57;;;;;;;2.70;0.73;;;16.30;80.60;;;;;;5034313;28;20447;-70
2022/08/29 09:26:03;;;;;;;4.28;1.08;;;16.30;79.90;;;;;;5031985;28;20021;-69
2022/08/29 09:29:09;;;;;;;5.15;0.73;;;16.40;79.40;;;;;;5031099;28;20041;-70
2022/08/29 09:32:24;;;;;;;4.22;1.38;;;16.40;78.70;;;;;;5026907;28;20465;-69
2022/08/29 09:35:36;;;;;;;6.55;1.45;;;16.40;77.60;;;;;;5031348;28;20060;-70
2022/08/29 09:38:45;;;;;;;7.80;2.83;;;16.50;76.80;;;;;;5033934;28;20658;-70
2022/08/29 09:41:51;;;;;;;5.03;1.20;;;16.50;76.10;;;;;;5033836;28;20029;-70
2022/08/29 09:45:12;;;;;;;2.90;1.80;;;16.60;75.40;;;;;;5036088;28;20028;-69
2022/08/29 09:48:27;;;;;;;8.75;1.52;;;16.60;75.10;;;;;;5029177;28;20077;-69
2022/08/29 09:51:23;;;;;;;5.15;1.10;;;16.70;74.90;;;;;;5029958;28;20032;-70
2022/08/29 09:54:47;;;;;;;8.60;1.55;;;16.80;74.90;;;;;;5024179;28;20037;-70
2022/08/29 09:58:02;;;;;;;9.85;1.55;;;16.80;74.60;;;;;;5030955;28;20034;-69
2022/08/29 10:01:17;;;;;;;10.75;2.58;;;16.90;74.30;;;;;;5027555;28;20077;-72
2022/08/29 10:04:26;;;;;;;2.65;1.40;;;16.90;73.80;;;;;;5028973;28;20040;-72
2022/08/29 10:07:33;;;;;;;3.95;0.90;;;17.00;72.60;;;;;;5030204;28;20112;-71
2022/08/29 10:10:51;;;;;;;3.15;1.23;;;17.00;71.40;;;;;;5037599;28;20504;-72
2022/08/29 10:13:43;;;;;;;1.77;0.82;;;17.00;70.80;;;;;;5033254;28;20041;-72
2022/08/29 10:16:39;;;;;;;8.82;2.00;;;17.10;70.40;;;;;;5036143;28;20102;-72
2022/08/29 10:19:31;;;;;;;3.20;1.10;;;17.10;70.00;;;;;;5034326;28;20468;-72
2022/08/29 10:22:52;;;;;;;4.65;2.03;;;17.10;69.50;;;;;;5035277;28;20034;-72
2022/08/29 10:26:16;;;;;;;9.82;1.17;;;17.10;69.20;;;;;;5030355;28;20512;-72
2022/08/29 10:29:38;;;;;;;2.00;0.60;;;17.20;68.90;;;;;;5033453;28;20037;-71
2022/08/29 10:32:23;;;;;;;4.43;1.08;;;17.30;68.90;;;;;;5030828;28;20478;-72
2022/08/29 10:35:02;;;;;;;4.28;1.45;;;17.30;68.80;;;;;;5034392;28;20045;-72
2022/08/29 10:37:57;;;;;;;7.53;0.77;;;17.30;68.80;;;;;;5036101;28;20074;-72
2022/08/29 10:41:12;;;;;;;3.97;1.45;;;17.40;68.60;;;;;;5027556;28;20028;-71
2022/08/29 10:44:07;;;;;;;4.35;0.85;;;17.40;68.30;;;;;;5032987;28;20045;-71
2022/08/29 10:46:59;;;;;;;3.25;0.80;;;17.50;68.10;;;;;;5027413;28;20038;-71
2022/08/29 10:49:38;;;;;;;9.27;1.30;;;17.60;67.40;;;;;;5029669;28;20033;-72
2022/08/29 10:52:53;;;;;;;3.17;1.10;;;17.60;67.40;;;;;;5039530;28;20041;-71
2022/08/29 10:56:14;;;;;;;5.05;1.35;;;17.70;67.40;;;;;;5032816;28;20029;-72
2022/08/29 10:59:19;;;;;;;3.75;0.77;;;17.80;66.70;;;;;;5028359;28;20037;-71
2022/08/29 11:02:28;;;;;;;6.13;1.17;;;17.80;66.00;;;;;;5028050;28;20040;-71
2022/08/29 11:05:46;;;;;;;9.27;1.48;;;17.90;65.20;;;;;;5035487;28;20116;-72
2022/08/29 11:08:52;;;;;;;5.28;0.98;;;17.90;65.30;;;;;;5029647;28;20025;-71
2022/08/29 11:11:58;;;;;;;6.18;1.05;;;18.00;65.10;;;;;;5036925;28;20107;-71
2022/08/29 11:15:07;;;;;;;6.47;2.20;;;18.10;64.70;;;;;;5040554;28;20459;-72
2022/08/29 11:18:12;;;;;;;5.53;1.10;;;18.20;64.40;;;;;;5032204;28;20045;-72
2022/08/29 11:20:46;;;;;;;8.50;1.27;;;18.20;64.50;;;;;;5031421;28;20033;-72
2022/08/29 11:23:37;;;;;;;3.13;0.85;;;18.20;64.50;;;;;;5036479;28;20405;-72
2022/08/29 11:26:38;;;;;;;2.95;0.98;;;18.30;64.80;;;;;;5035853;28;20587;-72
2022/08/29 11:29:15;;;;;;;9.13;2.00;;;18.30;64.30;;;;;;5035288;28;20380;-72
2022/08/29 11:31:51;;;;;;;8.45;1.55;;;18.30;63.90;;;;;;5037094;28;20409;-71
2022/08/29 11:34:39;;;;;;;7.78;1.30;;;18.30;64.00;;;;;;5033257;28;20033;-72
2022/08/29 11:37:27;;;;;;;4.78;1.10;;;18.30;64.10;;;;;;5064480;28;20534;-72
2022/08/29 11:40:26;;;;;;;3.25;1.25;;;18.30;64.00;;;;;;5037281;28;20032;-72
2022/08/29 11:42:53;;;;;;;6.28;1.70;;;18.30;63.50;;;;;;5033038;28;20116;-72
2022/08/29 11:45:34;;;;;;;5.13;1.13;;;18.30;63.20;;;;;;5033211;28;20080;-72
2022/08/29 11:48:30;;;;;;;7.35;1.10;;;18.30;62.90;;;;;;5037758;28;20030;-72
2022/08/29 11:50:57;;;;;;;8.55;1.73;;;18.30;62.50;;;;;;5028684;28;20034;-72
2022/08/29 11:53:33;;;;;;;7.05;1.42;;;18.30;62.00;;;;;;5029522;28;20381;-72
2022/08/29 11:56:12;;;;;;;3.80;1.40;;;18.30;61.10;;;;;;5036179;28;20057;-72
2022/08/29 11:58:39;;;;;;;4.10;1.00;;;18.30;60.60;;;;;;5029075;28;20087;-71
2022/08/29 12:01:09;;;;;;;6.20;1.55;;;18.30;59.70;;;;;;5039952;28;20088;-72
2022/08/29 12:03:35;;;;;;;3.00;0.63;;;18.40;59.40;;;;;;5026873;28;20060;-72
2022/08/29 12:06:15;;;;;;;4.40;1.20;;;18.40;58.80;;;;;;5037999;28;20018;-72
2022/08/29 12:08:46;;;;;;;3.33;1.50;;;18.50;58.70;;;;;;5033362;28;20507;-72
2022/08/29 12:11:13;;;;;;;3.80;1.20;;;18.50;58.30;;;;;;5034840;28;20080;-72
2022/08/29 12:13:46;;;;;;;5.43;1.20;;;18.50;57.80;;;;;;5032179;28;20022;-72
2022/08/29 12:16:15;;;;;;;2.85;1.30;;;18.60;57.70;;;;;;5040010;28;20028;-72
2022/08/29 12:18:51;;;;;;;6.07;1.65;;;18.60;57.20;;;;;;5031428;28;20570;-72
2022/08/29 12:21:36;;;;;;;3.25;1.40;;;18.60;56.60;;;;;;5028577;28;20385;-72
2022/08/29 12:24:06;;;;;;;7.28;1.40;;;18.70;56.00;;;;;;5038465;28;20053;-72
2022/08/29 12:26:46;;;;;;;6.50;1.10;;;18.70;56.10;;;;;;5032376;28;20064;-72
2022/08/29 12:29:55;;;;;;;3.45;1.40;;;18.70;56.10;;;;;;5035808;28;20053;-72
2022/08/29 12:33:08;;;;;;;5.22;1.15;;;18.70;56.00;;;;;;5028097;28;20049;-72
2022/08/29 12:36:17;;;;;;;6.97;1.23;;;18.70;56.10;;;;;;5028397;28;20123;-72
2022/08/29 12:38:49;;;;;;;5.03;2.00;;;18.70;55.70;;;;;;5034173;28;20174;-72
2022/08/29 12:41:31;;;;;;;4.72;1.30;;;18.70;55.30;;;;;;5031417;28;20033;-71
2022/08/29 12:44:37;;;;;;;4.22;1.27;;;18.70;55.10;;;;;;5034064;28;20587;-72
2022/08/29 12:47:49;;;;;;;6.30;2.03;;;18.70;55.10;;;;;;5038272;28;20554;-72
2022/08/29 12:51:03;;;;;;;6.07;1.67;;;18.70;55.50;;;;;;5028392;28;20120;-72
2022/08/29 12:54:09;;;;;;;4.45;1.35;;;18.70;55.60;;;;;;5032984;28;20138;-72
2022/08/29 12:57:17;;;;;;;7.80;2.38;;;18.70;55.60;;;;;;5035266;28;20040;-72
2022/08/29 13:00:23;;;;;;;9.63;1.38;;;18.70;55.70;;;;;;5030886;28;20060;-72
2022/08/29 13:03:45;;;;;;;4.05;1.13;;;18.70;55.30;;;;;;5034275;28;20059;-72
2022/08/29 13:06:51;;;;;;;3.20;0.90;;;18.70;54.40;;;;;;5035723;28;20078;-72
2022/08/29 13:10:00;;;;;;;4.10;1.27;;;18.70;52.90;;;;;;5032957;28;20025;-72
2022/08/29 13:13:12;;;;;;;5.28;1.30;;;18.70;52.60;;;;;;5026819;28;20411;-72
2022/08/29 13:16:18;;;;;;;3.53;1.73;;;18.70;52.50;;;;;;5032286;28;20040;-72
2022/08/29 13:19:25;;;;;;;6.72;1.80;;;18.70;52.60;;;;;;5032890;28;20044;-71
2022/08/29 13:22:31;;;;;;;4.05;1.48;;;18.70;52.50;;;;;;5035457;28;20495;-72
2022/08/29 13:25:43;;;;;;;2.28;1.80;;;18.70;52.10;;;;;;5036157;28;20029;-72
2022/08/29 13:28:44;;;;;;;4.72;1.42;;;18.70;51.90;;;;;;5032503;28;20063;-72
2022/08/29 13:31:14;;;;;;;5.97;1.58;;;18.70;52.10;;;;;;5032313;28;20114;-72
2022/08/29 13:34:23;;;;;;;8.13;1.77;;;18.70;52.20;;;;;;5036205;28;20017;-72
2022/08/29 13:37:29;;;;;;;5.18;1.67;;;18.70;52.50;;;;;;5032362;28;20041;-72
2022/08/29 13:40:35;;;;;;;4.18;1.55;;;18.70;52.20;;;;;;5034171;28;20048;-72
2022/08/29 13:43:53;;;;;;;4.63;1.48;;;18.70;51.50;;;;;;5035765;28;20025;-72
2022/08/29 13:46:59;;;;;;;6.93;1.50;;;18.70;51.40;;;;;;5029323;28;20032;-72
2022/08/29 13:50:06;;;;;;;13.40;2.03;;;18.70;51.30;;;;;;5034381;28;20100;-72
2022/08/29 13:53:12;;;;;;;5.30;1.63;;;18.70;51.30;;;;;;5030945;28;20072;-72
2022/08/29 13:56:18;;;;;;;3.92;1.00;;;18.70;50.90;;;;;;5027830;28;20030;-72
2022/08/29 13:59:24;;;;;;;5.82;1.95;;;18.60;50.90;;;;;;5029572;28;20413;-72
2022/08/29 14:02:13;;;;;;;;;;;18.60;50.60;;;;;;5028364;28;20095;-72
2022/08/29 14:05:19;;;;;;;8.75;2.97;;;18.60;50.80;;;;;;5035534;28;20005;-72
2022/08/29 14:08:25;;;;;;;5.30;1.92;;;18.60;50.80;;;;;;5031929;28;20056;-72
2022/08/29 14:11:31;;;;;;;8.07;1.83;;;18.60;51.00;;;;;;5035294;28;20014;-72
2022/08/29 14:14:37;;;;;;;8.05;1.45;;;18.60;51.20;;;;;;5028285;28;20059;-72
2022/08/29 14:17:43;;;;;;;3.30;1.33;;;18.60;51.70;;;;;;5030755;28;20025;-72
2022/08/29 14:20:50;;;;;;;8.75;1.50;;;18.50;52.00;;;;;;5036019;28;20029;-72
2022/08/29 14:23:16;;;;;;;6.60;1.92;;;18.50;52.00;;;;;;5031314;28;20503;-72
2022/08/29 14:25:43;;;;;;;3.00;1.33;;;18.50;52.10;;;;;;5030444;28;20143;-72
2022/08/29 14:28:09;;;;;;;5.40;1.23;;;18.50;52.30;;;;;;5037724;28;20116;-72
2022/08/29 14:30:35;;;;;;;4.28;2.13;;;18.50;52.70;;;;;;5030523;28;20029;-70
2022/08/29 14:33:02;;;;;;;3.67;1.30;;;18.50;52.20;;;;;;5033825;28;20100;-72
2022/08/29 14:35:29;;;;;;;8.02;1.88;;;18.40;52.00;;;;;;5027810;28;20049;-72
2022/08/29 14:37:56;;;;;;;7.25;1.60;;;18.40;52.10;;;;;;5032607;28;20033;-72